Time;durP1;ratioP1;P1;durP2;ratioP2;P2;SDS_P1;SDS_P2;PMS_P1;PMS_P2;Temp;Humidity;BMP_temperature;BMP_pressure;BME280_temperature;BME280_humidity;BME280_pressure;Samples;Min_cycle;Max_cycle;Signal;HPM_P1;HPM_P2
2021/08/29 00:01:50;;;;;;;6.70;3.33;;;;;;;;;;10398256;28;20804;-70
2021/08/29 00:06:54;;;;;;;6.70;2.63;;;;;;;;;;10400386;28;20213;-71
2021/08/29 00:11:57;;;;;;;7.43;3.27;;;;;;;;;;10392862;28;20252;-69
2021/08/29 00:17:00;;;;;;;6.07;2.80;;;;;;;;;;10396307;28;20260;-70
2021/08/29 00:22:04;;;;;;;7.10;2.90;;;;;;;;;;10399294;28;20190;-70
2021/08/29 00:27:07;;;;;;;5.97;3.00;;;;;;;;;;10395140;28;20253;-69
2021/08/29 00:32:12;;;;;;;5.33;2.33;;;;;;;;;;10395330;28;20241;-69
2021/08/29 00:37:17;;;;;;;6.40;2.83;;;;;;;;;;10394848;28;20232;-70
2021/08/29 00:42:19;;;;;;;5.83;2.70;;;;;;;;;;10395842;28;20201;-69
2021/08/29 00:47:22;;;;;;;4.93;2.37;;;;;;;;;;10394271;28;20619;-70
2021/08/29 00:52:26;;;;;;;4.80;2.50;;;;;;;;;;10392827;28;20649;-69
2021/08/29 00:57:29;;;;;;;5.93;2.83;;;;;;;;;;10391845;28;20300;-71
2021/08/29 01:02:33;;;;;;;4.27;2.40;;;;;;;;;;10394207;28;20193;-69
2021/08/29 01:07:40;;;;;;;4.77;2.40;;;;;;;;;;10390749;28;20277;-70
2021/08/29 01:12:44;;;;;;;5.00;2.53;;;;;;;;;;10390472;28;20213;-70
2021/08/29 01:17:48;;;;;;;5.63;2.67;;;;;;;;;;10394724;28;20206;-70
2021/08/29 01:22:54;;;;;;;4.63;2.40;;;;;;;;;;10403128;28;20244;-69
2021/08/29 01:28:17;;;;;;;5.23;2.70;;;;;;;;;;10393424;28;20228;-70
2021/08/29 01:33:21;;;;;;;5.20;2.57;;;;;;;;;;10393781;28;20339;-70
2021/08/29 01:38:24;;;;;;;5.47;2.70;;;;;;;;;;10393176;28;20202;-70
2021/08/29 01:43:26;;;;;;;6.00;2.70;;;;;;;;;;10390555;28;20296;-70
2021/08/29 01:48:31;;;;;;;4.67;2.50;;;;;;;;;;10392200;28;20208;-67
2021/08/29 01:53:35;;;;;;;4.53;2.43;;;;;;;;;;10387854;28;20321;-70
2021/08/29 01:58:38;;;;;;;6.73;3.00;;;;;;;;;;10391668;28;20321;-68
2021/08/29 02:03:43;;;;;;;4.27;2.27;;;;;;;;;;10399910;28;21048;-70
2021/08/29 02:08:49;;;;;;;6.73;2.50;;;;;;;;;;10400425;28;20280;-70
2021/08/29 02:13:54;;;;;;;4.67;2.20;;;;;;;;;;10395722;28;20213;-69
2021/08/29 02:18:58;;;;;;;3.87;2.00;;;;;;;;;;10409845;28;20719;-71
2021/08/29 02:24:03;;;;;;;3.27;2.07;;;;;;;;;;10395886;28;20232;-68
2021/08/29 02:29:06;;;;;;;4.10;2.10;;;;;;;;;;10396400;28;20241;-69
2021/08/29 02:34:10;;;;;;;4.13;2.10;;;;;;;;;;10398400;28;20252;-68
2021/08/29 02:39:14;;;;;;;4.00;1.90;;;;;;;;;;10395946;28;20197;-69
2021/08/29 02:44:18;;;;;;;4.57;2.10;;;;;;;;;;10395699;28;20682;-70
2021/08/29 02:49:23;;;;;;;3.70;1.97;;;;;;;;;;10400361;28;20297;-70
2021/08/29 02:54:28;;;;;;;5.70;2.63;;;;;;;;;;10394565;28;20701;-70
2021/08/29 02:59:30;;;;;;;4.30;2.23;;;;;;;;;;10394441;28;20244;-69
2021/08/29 03:04:35;;;;;;;5.80;2.50;;;;;;;;;;10394309;28;20280;-69
2021/08/29 03:09:37;;;;;;;5.10;2.70;;;;;;;;;;10392517;28;20294;-69
2021/08/29 03:14:42;;;;;;;5.67;2.60;;;;;;;;;;10393594;28;20217;-69
2021/08/29 03:19:47;;;;;;;6.10;2.30;;;;;;;;;;10394543;28;20186;-69
2021/08/29 03:24:50;;;;;;;4.10;2.20;;;;;;;;;;10394514;28;20276;-71
2021/08/29 03:29:52;;;;;;;4.57;2.40;;;;;;;;;;10404978;28;20206;-70
2021/08/29 03:34:59;;;;;;;5.30;2.50;;;;;;;;;;10397081;28;20221;-71
2021/08/29 03:40:03;;;;;;;6.30;3.17;;;;;;;;;;10396634;28;20250;-70
2021/08/29 03:45:07;;;;;;;5.10;2.53;;;;;;;;;;10394999;28;20648;-70
2021/08/29 03:50:12;;;;;;;6.87;3.20;;;;;;;;;;10397905;28;20290;-70
2021/08/29 03:55:15;;;;;;;7.07;3.07;;;;;;;;;;10392648;28;20262;-69
2021/08/29 04:00:18;;;;;;;6.50;3.30;;;;;;;;;;10393988;28;20588;-70
2021/08/29 04:05:23;;;;;;;7.70;3.43;;;;;;;;;;10396842;28;20598;-69
2021/08/29 04:10:26;;;;;;;7.40;3.43;;;;;;;;;;10388856;28;20296;-68
2021/08/29 04:15:29;;;;;;;7.33;3.63;;;;;;;;;;10384207;28;20272;-70
2021/08/29 04:20:54;;;;;;;9.10;4.23;;;;;;;;;;10383456;28;20725;-68
2021/08/29 04:26:16;;;;;;;10.53;4.77;;;;;;;;;;10390029;28;20220;-72
2021/08/29 04:31:24;;;;;;;8.73;4.67;;;;;;;;;;10390944;28;20205;-68
2021/08/29 04:36:29;;;;;;;9.70;4.77;;;;;;;;;;10392305;28;20224;-71
2021/08/29 04:41:32;;;;;;;8.67;4.60;;;;;;;;;;10388210;28;20240;-67
2021/08/29 04:46:35;;;;;;;8.37;4.13;;;;;;;;;;10388781;28;20213;-68
2021/08/29 04:51:39;;;;;;;9.23;4.20;;;;;;;;;;10382488;28;20210;-70
2021/08/29 04:56:41;;;;;;;8.30;4.43;;;;;;;;;;10389755;28;20221;-71
2021/08/29 05:01:44;;;;;;;9.63;4.93;;;;;;;;;;10391496;28;20271;-70
2021/08/29 05:06:49;;;;;;;9.93;4.97;;;;;;;;;;10394755;28;20519;-69
2021/08/29 05:11:51;;;;;;;10.80;5.97;;;;;;;;;;10394306;28;20581;-71
2021/08/29 05:16:54;;;;;;;12.10;6.50;;;;;;;;;;10394471;28;20219;-71
2021/08/29 05:21:58;;;;;;;11.17;6.00;;;;;;;;;;10392528;28;20586;-70
2021/08/29 05:27:01;;;;;;;13.40;6.27;;;;;;;;;;10395138;28;20245;-70
2021/08/29 05:32:04;;;;;;;11.50;5.80;;;;;;;;;;10392902;28;20199;-70
2021/08/29 05:37:08;;;;;;;13.97;6.67;;;;;;;;;;10401524;28;20257;-69
2021/08/29 05:42:11;;;;;;;10.90;5.87;;;;;;;;;;10397917;28;20213;-69
2021/08/29 05:47:13;;;;;;;12.73;6.90;;;;;;;;;;10396308;28;20593;-69
2021/08/29 05:52:18;;;;;;;12.57;6.20;;;;;;;;;;10401493;28;20293;-70
2021/08/29 05:57:20;;;;;;;12.30;6.93;;;;;;;;;;10403837;28;20252;-71
2021/08/29 06:02:23;;;;;;;12.53;5.87;;;;;;;;;;10401628;28;20649;-70
2021/08/29 06:07:28;;;;;;;12.50;7.23;;;;;;;;;;10398671;28;20920;-70
2021/08/29 06:12:31;;;;;;;13.23;7.17;;;;;;;;;;10396619;28;20260;-70
2021/08/29 06:17:33;;;;;;;16.13;7.63;;;;;;;;;;10399105;28;20360;-69
2021/08/29 06:22:37;;;;;;;12.20;7.07;;;;;;;;;;10398502;28;20642;-70
2021/08/29 06:27:40;;;;;;;13.30;7.47;;;;;;;;;;10393256;28;20308;-70
2021/08/29 06:32:43;;;;;;;13.60;7.40;;;;;;;;;;10397697;28;20255;-70
2021/08/29 06:37:47;;;;;;;14.03;7.40;;;;;;;;;;10401333;28;20275;-70
2021/08/29 06:42:50;;;;;;;13.33;7.37;;;;;;;;;;10401427;28;20288;-70
2021/08/29 06:47:53;;;;;;;13.33;7.33;;;;;;;;;;10402295;28;20192;-70
2021/08/29 06:52:57;;;;;;;13.13;7.03;;;;;;;;;;10396101;28;20253;-69
2021/08/29 06:58:00;;;;;;;13.00;7.60;;;;;;;;;;10401675;28;20198;-71
2021/08/29 07:03:03;;;;;;;13.23;7.50;;;;;;;;;;10397611;28;20210;-71
2021/08/29 07:08:07;;;;;;;12.13;6.97;;;;;;;;;;10400222;28;20280;-72
2021/08/29 07:13:10;;;;;;;12.70;7.43;;;;;;;;;;10396389;28;20634;-72
2021/08/29 07:18:13;;;;;;;10.70;5.80;;;;;;;;;;10397268;28;20288;-71
2021/08/29 07:23:17;;;;;;;11.83;6.63;;;;;;;;;;10396880;28;20706;-71
2021/08/29 07:28:20;;;;;;;10.47;5.80;;;;;;;;;;10395888;28;20194;-69
2021/08/29 07:33:23;;;;;;;8.87;4.93;;;;;;;;;;10396828;28;20284;-70
2021/08/29 07:38:27;;;;;;;8.23;4.93;;;;;;;;;;10395827;28;20248;-70
2021/08/29 07:43:30;;;;;;;7.77;4.50;;;;;;;;;;10391572;28;20249;-70
2021/08/29 07:48:36;;;;;;;7.80;4.20;;;;;;;;;;10396979;28;20205;-70
2021/08/29 07:53:40;;;;;;;7.53;3.97;;;;;;;;;;10395433;28;20698;-70
2021/08/29 07:58:43;;;;;;;6.40;3.33;;;;;;;;;;10396711;28;20720;-70
2021/08/29 08:03:46;;;;;;;5.73;2.83;;;;;;;;;;10400673;28;20244;-70
2021/08/29 08:08:50;;;;;;;5.53;2.67;;;;;;;;;;10393013;28;20209;-71
2021/08/29 08:13:53;;;;;;;6.20;2.60;;;;;;;;;;10393925;28;20279;-71
2021/08/29 08:18:55;;;;;;;4.50;2.50;;;;;;;;;;10392120;28;20259;-68
2021/08/29 08:24:00;;;;;;;5.40;3.10;;;;;;;;;;10401422;28;20296;-69
2021/08/29 08:29:02;;;;;;;4.23;2.50;;;;;;;;;;10397043;28;20209;-68
2021/08/29 08:34:05;;;;;;;4.03;2.30;;;;;;;;;;10398602;28;20566;-70
2021/08/29 08:39:09;;;;;;;4.77;2.60;;;;;;;;;;10396440;28;20301;-70
2021/08/29 08:44:12;;;;;;;5.33;2.80;;;;;;;;;;10395533;28;20689;-71
2021/08/29 08:49:17;;;;;;;5.23;2.90;;;;;;;;;;10394928;28;20295;-70
2021/08/29 08:54:21;;;;;;;5.63;2.83;;;;;;;;;;10397057;28;20549;-71
2021/08/29 08:59:23;;;;;;;4.50;2.77;;;;;;;;;;10395060;28;20189;-69
2021/08/29 09:04:26;;;;;;;5.00;2.83;;;;;;;;;;10397131;28;20213;-70
2021/08/29 09:09:30;;;;;;;5.53;3.17;;;;;;;;;;10405072;28;20205;-70
2021/08/29 09:14:40;;;;;;;7.23;3.40;;;;;;;;;;10404644;28;20218;-74
2021/08/29 09:19:43;;;;;;;5.07;2.80;;;;;;;;;;10403238;28;20650;-69
2021/08/29 09:24:51;;;;;;;5.63;2.90;;;;;;;;;;10400182;28;20638;-70
2021/08/29 09:29:53;;;;;;;5.47;2.93;;;;;;;;;;10405625;28;20508;-71
2021/08/29 09:34:57;;;;;;;6.50;3.33;;;;;;;;;;10399998;28;20253;-70
2021/08/29 09:40:13;;;;;;;6.57;3.40;;;;;;;;;;10405008;28;20277;-72
2021/08/29 09:45:20;;;;;;;7.87;3.80;;;;;;;;;;10403856;28;20322;-70
2021/08/29 09:50:23;;;;;;;7.50;3.30;;;;;;;;;;10400070;28;20240;-68
2021/08/29 09:55:32;;;;;;;7.23;3.90;;;;;;;;;;10401938;28;20284;-69
2021/08/29 10:00:35;;;;;;;7.07;3.87;;;;;;;;;;10401101;28;20200;-70
2021/08/29 10:05:38;;;;;;;7.60;3.97;;;;;;;;;;10403333;28;20283;-71
2021/08/29 10:10:42;;;;;;;6.63;3.57;;;;;;;;;;10400656;28;20697;-69
2021/08/29 10:15:45;;;;;;;5.07;3.03;;;;;;;;;;10405018;28;20311;-70
2021/08/29 10:20:48;;;;;;;6.27;3.70;;;;;;;;;;10399656;28;20289;-70
2021/08/29 10:25:53;;;;;;;5.70;3.20;;;;;;;;;;10397915;28;20314;-70
2021/08/29 10:31:02;;;;;;;4.63;2.70;;;;;;;;;;10399164;28;21183;-70
2021/08/29 10:36:05;;;;;;;5.13;2.85;;;;;;;;;;10399408;28;20221;-69
2021/08/29 10:41:09;;;;;;;3.58;2.30;;;;;;;;;;10400785;28;20718;-70
2021/08/29 10:46:14;;;;;;;3.45;2.22;;;;;;;;;;10402658;28;20605;-70
2021/08/29 10:51:19;;;;;;;5.05;2.50;;;;;;;;;;10399973;28;20215;-71
2021/08/29 10:56:33;;;;;;;3.63;2.28;;;;;;;;;;10392456;28;20291;-69
2021/08/29 11:01:37;;;;;;;3.38;2.00;;;;;;;;;;10402328;28;20205;-71
2021/08/29 11:06:46;;;;;;;2.30;1.80;;;;;;;;;;10401964;28;20701;-70
2021/08/29 11:11:50;;;;;;;3.08;1.63;;;;;;;;;;10400619;28;20284;-70
2021/08/29 11:17:08;;;;;;;2.63;1.80;;;;;;;;;;10398029;28;20295;-67
2021/08/29 11:22:15;;;;;;;3.20;1.80;;;;;;;;;;10397712;28;20221;-69
2021/08/29 11:27:36;;;;;;;2.00;1.55;;;;;;;;;;10395981;28;20244;-69
2021/08/29 11:32:43;;;;;;;2.60;1.83;;;;;;;;;;10400710;28;20212;-69
2021/08/29 11:38:01;;;;;;;6.05;3.70;;;;;;;;;;10400675;28;20289;-70
2021/08/29 11:43:14;;;;;;;2.83;1.90;;;;;;;;;;10399815;28;20776;-70
2021/08/29 11:48:25;;;;;;;2.38;1.63;;;;;;;;;;10400894;28;20264;-71
2021/08/29 11:53:28;;;;;;;2.30;1.45;;;;;;;;;;10395547;28;20309;-68
2021/08/29 11:58:31;;;;;;;2.65;1.70;;;;;;;;;;10394265;28;20272;-69
2021/08/29 12:03:36;;;;;;;3.22;1.80;;;;;;;;;;10395888;28;20290;-70
2021/08/29 12:08:47;;;;;;;3.67;2.00;;;;;;;;;;10397144;28;20194;-69
2021/08/29 12:13:50;;;;;;;22.70;17.30;;;;;;;;;;10393082;28;20296;-70
2021/08/29 12:18:55;;;;;;;3.47;2.00;;;;;;;;;;10396109;28;20194;-70
2021/08/29 12:23:59;;;;;;;3.80;2.20;;;;;;;;;;10388723;28;20292;-69
2021/08/29 12:29:02;;;;;;;2.83;1.80;;;;;;;;;;10394264;28;20658;-70
2021/08/29 12:34:07;;;;;;;4.73;2.37;;;;;;;;;;10397980;28;20542;-70
2021/08/29 12:39:10;;;;;;;3.63;2.10;;;;;;;;;;10396672;28;20205;-71
2021/08/29 12:44:12;;;;;;;3.77;1.90;;;;;;;;;;10397258;28;20384;-70
2021/08/29 12:49:17;;;;;;;3.10;1.90;;;;;;;;;;10396975;28;20190;-70
2021/08/29 12:54:19;;;;;;;3.03;1.90;;;;;;;;;;10397825;28;20300;-70
2021/08/29 12:59:26;;;;;;;6.20;3.15;;;;;;;;;;10396906;28;20193;-71
2021/08/29 13:04:31;;;;;;;5.25;2.13;;;;;;;;;;10398111;28;20613;-70
2021/08/29 13:09:35;;;;;;;10.40;2.20;;;;;;;;;;10398113;28;20197;-69
2021/08/29 13:14:40;;;;;;;2.70;1.80;;;;;;;;;;10393372;28;20249;-70
2021/08/29 13:19:54;;;;;;;2.83;1.90;;;;;;;;;;10398026;28;20269;-70
2021/08/29 13:24:57;;;;;;;4.83;1.80;;;;;;;;;;10395753;28;20685;-71
2021/08/29 13:30:00;;;;;;;3.00;1.87;;;;;;;;;;10393325;28;20650;-69
2021/08/29 13:35:12;;;;;;;3.00;1.83;;;;;;;;;;10397023;28;20222;-71
2021/08/29 13:40:15;;;;;;;4.27;2.93;;;;;;;;;;10395285;28;20213;-70
2021/08/29 13:45:22;;;;;;;4.03;2.10;;;;;;;;;;10395706;28;20212;-70
2021/08/29 13:50:26;;;;;;;1.90;1.40;;;;;;;;;;10396695;28;20277;-70
2021/08/29 13:55:29;;;;;;;1.77;1.23;;;;;;;;;;10397135;28;20210;-69
2021/08/29 14:00:33;;;;;;;1.80;1.20;;;;;;;;;;10403740;28;20197;-69
2021/08/29 14:05:39;;;;;;;1.60;1.10;;;;;;;;;;10402694;28;20589;-70
2021/08/29 14:10:42;;;;;;;2.37;1.20;;;;;;;;;;10406166;28;20205;-71
2021/08/29 14:15:45;;;;;;;3.93;2.00;;;;;;;;;;10405156;28;20515;-67
2021/08/29 14:20:49;;;;;;;1.73;1.20;;;;;;;;;;10402096;28;20194;-69
2021/08/29 14:25:51;;;;;;;1.57;1.10;;;;;;;;;;10403211;28;20221;-70
2021/08/29 14:30:54;;;;;;;1.63;0.90;;;;;;;;;;10400701;28;20202;-71
2021/08/29 14:35:59;;;;;;;1.10;1.00;;;;;;;;;;10400052;28;20539;-70
2021/08/29 14:41:02;;;;;;;3.27;1.00;;;;;;;;;;10397722;28;20220;-70
2021/08/29 14:46:04;;;;;;;1.30;1.00;;;;;;;;;;10403826;28;20220;-68
2021/08/29 14:51:08;;;;;;;1.37;1.10;;;;;;;;;;10399356;28;20611;-70
2021/08/29 14:56:11;;;;;;;9.17;6.60;;;;;;;;;;10400646;28;20547;-70
2021/08/29 15:01:14;;;;;;;2.07;1.03;;;;;;;;;;10401064;28;20288;-70
2021/08/29 15:06:18;;;;;;;1.73;1.00;;;;;;;;;;10397600;28;20343;-71
2021/08/29 15:11:22;;;;;;;1.07;1.00;;;;;;;;;;10398192;28;20280;-70
2021/08/29 15:16:25;;;;;;;1.30;0.93;;;;;;;;;;10401494;28;20218;-71
2021/08/29 15:21:29;;;;;;;1.40;1.10;;;;;;;;;;10398040;28;20186;-70
2021/08/29 15:26:32;;;;;;;2.17;1.10;;;;;;;;;;10395839;28;20525;-70
2021/08/29 15:31:35;;;;;;;3.33;1.23;;;;;;;;;;10395902;28;20247;-69
2021/08/29 15:36:39;;;;;;;1.20;1.10;;;;;;;;;;10400034;28;20316;-71
2021/08/29 15:41:42;;;;;;;2.43;1.10;;;;;;;;;;10398782;28;20202;-70
2021/08/29 15:46:45;;;;;;;3.27;1.47;;;;;;;;;;10400342;28;20551;-71
2021/08/29 15:51:49;;;;;;;3.07;1.60;;;;;;;;;;10397251;28;20621;-71
2021/08/29 15:56:52;;;;;;;1.60;1.20;;;;;;;;;;10398318;28;20565;-70
2021/08/29 16:01:55;;;;;;;2.50;1.20;;;;;;;;;;10399596;28;20190;-71
2021/08/29 16:07:00;;;;;;;2.10;1.23;;;;;;;;;;10400627;28;20287;-69
2021/08/29 16:12:03;;;;;;;1.97;1.10;;;;;;;;;;10397467;28;20576;-71
2021/08/29 16:17:06;;;;;;;1.67;1.20;;;;;;;;;;10399109;28;20205;-69
2021/08/29 16:22:10;;;;;;;2.33;1.10;;;;;;;;;;10399587;28;20190;-69
2021/08/29 16:27:13;;;;;;;2.20;1.30;;;;;;;;;;10399592;28;20210;-67
2021/08/29 16:32:16;;;;;;;2.40;1.20;;;;;;;;;;10397101;28;20233;-70
2021/08/29 16:37:21;;;;;;;2.17;1.10;;;;;;;;;;10398502;28;20301;-71
2021/08/29 16:42:27;;;;;;;1.87;1.10;;;;;;;;;;10396296;28;20280;-69
2021/08/29 16:47:30;;;;;;;1.30;1.10;;;;;;;;;;10396596;28;20221;-68
2021/08/29 16:52:34;;;;;;;2.00;1.13;;;;;;;;;;10395943;28;20195;-70
2021/08/29 16:57:37;;;;;;;1.83;1.17;;;;;;;;;;10393759;28;20213;-69
2021/08/29 17:02:39;;;;;;;3.47;1.17;;;;;;;;;;10397201;28;20196;-69
2021/08/29 17:07:44;;;;;;;8.17;4.37;;;;;;;;;;10401127;28;20194;-68
2021/08/29 17:12:47;;;;;;;6.43;3.00;;;;;;;;;;10398930;28;20213;-69
2021/08/29 17:17:49;;;;;;;6.43;2.70;;;;;;;;;;10399786;28;20244;-69
2021/08/29 17:22:53;;;;;;;3.90;1.90;;;;;;;;;;10394695;28;20583;-70
2021/08/29 17:27:58;;;;;;;3.10;1.50;;;;;;;;;;10401164;28;20673;-71
2021/08/29 17:33:01;;;;;;;4.27;1.50;;;;;;;;;;10404185;28;20305;-70
2021/08/29 17:38:06;;;;;;;2.17;1.20;;;;;;;;;;10405777;28;20558;-70
2021/08/29 17:43:09;;;;;;;1.53;1.03;;;;;;;;;;10403862;28;20235;-70
2021/08/29 17:48:12;;;;;;;2.63;1.00;;;;;;;;;;10423615;28;20297;-71
2021/08/29 17:53:16;;;;;;;1.63;1.20;;;;;;;;;;10406281;28;20218;-69
2021/08/29 17:58:19;;;;;;;1.50;1.20;;;;;;;;;;10401122;28;20256;-71
2021/08/29 18:03:22;;;;;;;2.13;1.20;;;;;;;;;;10403605;28;20720;-69
2021/08/29 18:08:29;;;;;;;5.17;2.30;;;;;;;;;;10406136;28;20181;-69
2021/08/29 18:13:32;;;;;;;1.57;1.17;;;;;;;;;;10402178;28;20222;-70
2021/08/29 18:18:35;;;;;;;2.53;1.30;;;;;;;;;;10405109;28;20214;-71
2021/08/29 18:23:39;;;;;;;3.10;1.77;;;;;;;;;;10402230;28;20644;-69
2021/08/29 18:28:42;;;;;;;2.60;1.33;;;;;;;;;;10401523;28;20920;-69
2021/08/29 18:33:45;;;;;;;3.63;1.80;;;;;;;;;;10402606;28;20722;-70
2021/08/29 18:38:49;;;;;;;5.33;2.50;;;;;;;;;;10398267;28;20312;-71
2021/08/29 18:43:54;;;;;;;2.93;1.60;;;;;;;;;;10398521;28;20276;-71
2021/08/29 18:48:57;;;;;;;2.60;1.30;;;;;;;;;;10403406;28;20190;-70
2021/08/29 18:54:01;;;;;;;4.40;1.60;;;;;;;;;;10403143;28;20736;-69
2021/08/29 18:59:04;;;;;;;3.30;1.50;;;;;;;;;;10400666;28;20200;-69
2021/08/29 19:04:07;;;;;;;7.63;4.27;;;;;;;;;;10403470;28;20640;-69
2021/08/29 19:09:12;;;;;;;2.70;1.50;;;;;;;;;;10401353;28;20733;-70
2021/08/29 19:14:15;;;;;;;5.43;2.30;;;;;;;;;;10401194;28;20318;-70
2021/08/29 19:19:18;;;;;;;5.83;2.13;;;;;;;;;;10402955;28;20182;-70
2021/08/29 19:24:22;;;;;;;3.67;1.73;;;;;;;;;;10396732;28;20580;-70
2021/08/29 19:29:24;;;;;;;4.97;2.37;;;;;;;;;;10398254;28;20276;-70
2021/08/29 19:34:27;;;;;;;10.53;5.27;;;;;;;;;;10399852;28;20236;-71
2021/08/29 19:39:31;;;;;;;4.43;1.90;;;;;;;;;;10398766;28;20229;-71
2021/08/29 19:44:34;;;;;;;3.77;2.20;;;;;;;;;;10399290;28;20210;-71
2021/08/29 19:49:37;;;;;;;6.63;2.87;;;;;;;;;;10399060;28;20289;-70
2021/08/29 19:54:41;;;;;;;3.30;1.90;;;;;;;;;;10395784;28;20291;-71
2021/08/29 19:59:44;;;;;;;5.43;2.10;;;;;;;;;;10393770;28;20194;-72
2021/08/29 20:04:49;;;;;;;4.83;2.40;;;;;;;;;;10407801;28;20236;-69
2021/08/29 20:09:53;;;;;;;4.73;2.33;;;;;;;;;;10396115;28;20737;-71
2021/08/29 20:14:56;;;;;;;2.80;1.57;;;;;;;;;;10391991;28;20311;-70
2021/08/29 20:19:59;;;;;;;4.77;2.07;;;;;;;;;;10394478;28;20718;-71
2021/08/29 20:25:03;;;;;;;3.93;2.00;;;;;;;;;;10394307;28;20233;-71
2021/08/29 20:30:06;;;;;;;3.07;1.80;;;;;;;;;;10391333;28;20193;-70
2021/08/29 20:35:10;;;;;;;2.57;1.40;;;;;;;;;;10393099;28;20253;-68
2021/08/29 20:40:14;;;;;;;2.77;1.60;;;;;;;;;;10393276;28;20209;-70
2021/08/29 20:45:17;;;;;;;1.73;1.20;;;;;;;;;;10392679;28;20213;-70
2021/08/29 20:50:20;;;;;;;1.97;1.33;;;;;;;;;;10390621;28;20217;-71
2021/08/29 20:55:24;;;;;;;3.50;1.70;;;;;;;;;;10394833;28;20219;-69
2021/08/29 21:00:27;;;;;;;2.90;1.60;;;;;;;;;;10393036;28;20198;-71
2021/08/29 21:05:30;;;;;;;2.10;1.50;;;;;;;;;;10401927;28;20272;-71
2021/08/29 21:10:34;;;;;;;3.80;2.00;;;;;;;;;;10404009;28;20201;-71
2021/08/29 21:15:37;;;;;;;3.20;1.70;;;;;;;;;;10397431;28;20458;-70
2021/08/29 21:20:40;;;;;;;2.73;1.70;;;;;;;;;;10401133;28;20252;-70
2021/08/29 21:25:45;;;;;;;2.93;1.70;;;;;;;;;;10395543;28;20232;-71
2021/08/29 21:30:48;;;;;;;3.40;1.83;;;;;;;;;;10401673;28;20259;-70
2021/08/29 21:35:51;;;;;;;3.30;1.70;;;;;;;;;;10397295;28;20217;-69
2021/08/29 21:40:55;;;;;;;5.10;2.23;;;;;;;;;;10400600;28;20190;-69
2021/08/29 21:45:58;;;;;;;4.57;2.13;;;;;;;;;;10399205;28;20760;-70
2021/08/29 21:51:02;;;;;;;4.57;2.10;;;;;;;;;;10399606;28;20202;-70
2021/08/29 21:56:06;;;;;;;4.57;2.13;;;;;;;;;;10400042;28;20263;-70
2021/08/29 22:01:09;;;;;;;4.67;2.00;;;;;;;;;;10399428;28;20281;-71
2021/08/29 22:06:13;;;;;;;4.43;2.13;;;;;;;;;;10401772;28;20210;-70
2021/08/29 22:11:17;;;;;;;4.43;2.20;;;;;;;;;;10397238;28;20328;-70
2021/08/29 22:16:20;;;;;;;3.83;2.00;;;;;;;;;;10399913;28;20267;-69
2021/08/29 22:21:23;;;;;;;2.87;1.30;;;;;;;;;;10396751;28;20195;-71
2021/08/29 22:26:27;;;;;;;3.40;1.50;;;;;;;;;;10400986;28;20305;-70
2021/08/29 22:31:30;;;;;;;3.27;1.43;;;;;;;;;;10395742;28;20278;-70
2021/08/29 22:36:33;;;;;;;3.30;1.60;;;;;;;;;;10394201;28;20307;-71
2021/08/29 22:41:37;;;;;;;3.90;1.73;;;;;;;;;;10391300;28;20197;-70
2021/08/29 22:46:39;;;;;;;2.97;1.53;;;;;;;;;;10396630;28;20301;-70
2021/08/29 22:51:42;;;;;;;5.17;2.13;;;;;;;;;;10398605;28;20199;-70
2021/08/29 22:56:46;;;;;;;4.17;1.80;;;;;;;;;;10394360;28;20283;-71
2021/08/29 23:01:49;;;;;;;3.07;1.57;;;;;;;;;;10396612;28;20263;-70
2021/08/29 23:06:52;;;;;;;3.17;1.40;;;;;;;;;;10393731;28;20523;-69
2021/08/29 23:11:56;;;;;;;3.73;1.80;;;;;;;;;;10396472;28;20186;-70
2021/08/29 23:16:59;;;;;;;4.30;1.50;;;;;;;;;;10398549;28;20367;-70
2021/08/29 23:22:02;;;;;;;3.03;1.50;;;;;;;;;;10396188;28;20598;-69
2021/08/29 23:27:07;;;;;;;3.27;1.60;;;;;;;;;;10396246;28;20222;-70
2021/08/29 23:32:10;;;;;;;1.57;0.80;;;;;;;;;;10397304;28;20198;-70
2021/08/29 23:37:12;;;;;;;3.03;1.60;;;;;;;;;;10395154;28;20271;-69
2021/08/29 23:42:16;;;;;;;3.93;1.90;;;;;;;;;;10392372;28;20197;-69
2021/08/29 23:47:19;;;;;;;3.93;1.97;;;;;;;;;;10392340;28;20761;-71
2021/08/29 23:52:22;;;;;;;2.67;1.27;;;;;;;;;;10397418;28;20217;-69
2021/08/29 23:57:26;;;;;;;3.40;1.87;;;;;;;;;;10396180;28;20221;-71
